Main page
METAR-TAF:

METAR-TAF

Airports :

Angers – Loire Airport

Angers, France

latitude: 47-33-37N, longitude: 000-18-44W, elevation: 59 m

Current weather observation

The report was made 21 minutes ago, at 16:30 UTC
Wind 4 kt from the East/Northeast
Temperature 16°C
Humidity 82%
Pressure 1006 hPa
Visibility 10 km or more
no clouds below 1500 m and no cumulonimbus

METAR: LFJR 231630Z AUTO 07004KT CAVOK 16/13 Q1006

Time: 18:51 (16:51 UTC)


TAF: missing

Weather observations and forecasts of more than 4000 airports (METAR and TAF reports).

The available stations are represented by yellow and red dots on the map.

Hover mouse over dot to see the name of the station.

Then click to see weather observations and forecasts.

To change the map : click on the green buttons with a black cross to zoom in, on the green button with a dash to zoom out, or on the green arrows for adjacent maps.


METAR-TAF: